EWG3655 LIMJ-EDDL
Flight info
| Callsign | EWG3655 |
|---|---|
| Flight time | 1h 3m |
| Altitude | 18000 |
| Route | LAGEN Q712 KEMMI/N0447F360 DCT SRN DCT PEPAG DCT ABESI DCT LOKTA/N0445F370 DCT TEDGO DCT HAREM DCT LOHRE/N0446F380 Z850 ARPEG/N0414F240 Z850 ADEMI T854 DOMUX DOMUX1A |
| Aircraft | A320/M-SDE3FGHIRWY/LB1 |
Departure
| Time | 2026-05-04 21:13 |
|---|---|
| Airport | Genoa Cristoforo Colombo Airport (LIMJ) |
Arrival
| Time | 2026-05-04 22:17 |
|---|---|
| Airport | Düsseldorf Airport (EDDL) |
| Time | Latitude | Longitude | Altitude | Speed | Heading |
|---|---|---|---|---|---|
| 2026-05-04 20:48 | 44.41406 | 8.85106 | 18 ft | 0 kts | 15° |
| 2026-05-04 21:04 | 44.41402 | 8.85104 | 18 ft | 3 kts | 15° |
| 2026-05-04 21:05 | 44.41376 | 8.85094 | 19 ft | 4 kts | 15° |
| 2026-05-04 21:05 | 44.41354 | 8.85086 | 21 ft | 4 kts | 24° |
| 2026-05-04 21:05 | 44.41338 | 8.85064 | 19 ft | 4 kts | 81° |
| 2026-05-04 21:05 | 44.41340 | 8.85031 | 18 ft | 4 kts | 105° |
| 2026-05-04 21:06 | 44.41346 | 8.84994 | 21 ft | 4 kts | 104° |
| 2026-05-04 21:06 | 44.41353 | 8.84957 | 20 ft | 4 kts | 103° |
| 2026-05-04 21:06 | 44.41359 | 8.84921 | 21 ft | 4 kts | 103° |
| 2026-05-04 21:06 | 44.41365 | 8.84886 | 20 ft | 2 kts | 105° |
| 2026-05-04 21:07 | 44.41365 | 8.84884 | 20 ft | 0 kts | 105° |
| 2026-05-04 21:08 | 44.41365 | 8.84886 | 20 ft | 2 kts | 105° |
| 2026-05-04 21:09 | 44.41351 | 8.84958 | 20 ft | 13 kts | 103° |
| 2026-05-04 21:09 | 44.41324 | 8.85110 | 19 ft | 17 kts | 105° |
| 2026-05-04 21:09 | 44.41292 | 8.85247 | 19 ft | 14 kts | 127° |
| 2026-05-04 21:09 | 44.41215 | 8.85281 | 18 ft | 13 kts | 194° |
| 2026-05-04 21:10 | 44.41121 | 8.85245 | 18 ft | 16 kts | 195° |
| 2026-05-04 21:10 | 44.41045 | 8.85182 | 13 ft | 10 kts | 221° |
| 2026-05-04 21:10 | 44.40994 | 8.85220 | 13 ft | 10 kts | 118° |
| 2026-05-04 21:10 | 44.40971 | 8.85328 | 15 ft | 14 kts | 105° |
| 2026-05-04 21:11 | 44.40938 | 8.85495 | 19 ft | 22 kts | 105° |
| 2026-05-04 21:11 | 44.40897 | 8.85704 | 22 ft | 22 kts | 105° |
| 2026-05-04 21:11 | 44.40855 | 8.85915 | 21 ft | 20 kts | 106° |
| 2026-05-04 21:11 | 44.40873 | 8.86029 | 22 ft | 10 kts | 71° |
| 2026-05-04 21:12 | 44.40830 | 8.86061 | 22 ft | 9 kts | 223° |
| 2026-05-04 21:12 | 44.40842 | 8.85976 | 21 ft | 9 kts | 290° |
| 2026-05-04 21:12 | 44.40848 | 8.85947 | 22 ft | 0 kts | 285° |
| 2026-05-04 21:12 | 44.40852 | 8.85926 | 22 ft | 12 kts | 285° |
| 2026-05-04 21:13 | 44.40946 | 8.85443 | 17 ft | 91 kts | 285° |
| 2026-05-04 21:13 | 44.41172 | 8.84294 | 24 ft | 150 kts | 285° |
| 2026-05-04 21:13 | 44.41473 | 8.82755 | 428 ft | 165 kts | 284° |
| 2026-05-04 21:13 | 44.41788 | 8.81212 | 1122 ft | 165 kts | 284° |
| 2026-05-04 21:14 | 44.42106 | 8.79633 | 1681 ft | 176 kts | 284° |
| 2026-05-04 21:14 | 44.42330 | 8.77870 | 2034 ft | 193 kts | 261° |
| 2026-05-04 21:14 | 44.41761 | 8.76191 | 2568 ft | 194 kts | 223° |
| 2026-05-04 21:14 | 44.40611 | 8.75312 | 3179 ft | 189 kts | 189° |
| 2026-05-04 21:15 | 44.39331 | 8.75472 | 3744 ft | 186 kts | 153° |
| 2026-05-04 21:15 | 44.38215 | 8.76359 | 4379 ft | 184 kts | 148° |
| 2026-05-04 21:15 | 44.37107 | 8.77243 | 5017 ft | 182 kts | 149° |
| 2026-05-04 21:15 | 44.35974 | 8.78051 | 5492 ft | 191 kts | 161° |
| 2026-05-04 21:16 | 44.34568 | 8.78005 | 5750 ft | 222 kts | 199° |
| 2026-05-04 21:16 | 44.33339 | 8.76507 | 6119 ft | 256 kts | 237° |
| 2026-05-04 21:16 | 44.32947 | 8.73984 | 6675 ft | 281 kts | 271° |
| 2026-05-04 21:16 | 44.33380 | 8.71279 | 7487 ft | 289 kts | 287° |
| 2026-05-04 21:17 | 44.34139 | 8.68668 | 8388 ft | 292 kts | 291° |
| 2026-05-04 21:17 | 44.34987 | 8.66073 | 9294 ft | 294 kts | 292° |
| 2026-05-04 21:17 | 44.35865 | 8.63477 | 10166 ft | 298 kts | 298° |
| 2026-05-04 21:17 | 44.37270 | 8.61243 | 10617 ft | 321 kts | 322° |
| 2026-05-04 21:18 | 44.39389 | 8.59974 | 10850 ft | 347 kts | 350° |
| 2026-05-04 21:18 | 44.41852 | 8.60204 | 11181 ft | 365 kts | 18° |
| 2026-05-04 21:18 | 44.44255 | 8.61482 | 11809 ft | 372 kts | 22° |
| 2026-05-04 21:18 | 44.46659 | 8.62890 | 12511 ft | 377 kts | 23° |
| 2026-05-04 21:19 | 44.49078 | 8.64354 | 13223 ft | 381 kts | 23° |
| 2026-05-04 21:19 | 44.51491 | 8.65818 | 13917 ft | 385 kts | 23° |
| 2026-05-04 21:19 | 44.53968 | 8.67307 | 14526 ft | 390 kts | 23° |
| 2026-05-04 21:19 | 44.56477 | 8.68801 | 15140 ft | 394 kts | 22° |
| 2026-05-04 21:20 | 44.59017 | 8.70299 | 15753 ft | 398 kts | 22° |
| 2026-05-04 21:20 | 44.61581 | 8.71805 | 16319 ft | 402 kts | 22° |
| 2026-05-04 21:20 | 44.64173 | 8.73326 | 16949 ft | 405 kts | 22° |
| 2026-05-04 21:20 | 44.66780 | 8.74862 | 17543 ft | 409 kts | 21° |
| 2026-05-04 21:21 | 44.69412 | 8.76410 | 18128 ft | 412 kts | 21° |
| 2026-05-04 21:21 | 44.72074 | 8.77980 | 18670 ft | 416 kts | 21° |
| 2026-05-04 21:21 | 44.74753 | 8.79564 | 19168 ft | 419 kts | 21° |
| 2026-05-04 21:21 | 44.77485 | 8.81015 | 19661 ft | 421 kts | 15° |
| 2026-05-04 21:22 | 44.80355 | 8.81887 | 20155 ft | 423 kts | 8° |
| 2026-05-04 21:22 | 44.83263 | 8.82568 | 20649 ft | 426 kts | 8° |
| 2026-05-04 21:22 | 44.86194 | 8.83260 | 21138 ft | 428 kts | 8° |
| 2026-05-04 21:22 | 44.89141 | 8.83959 | 21625 ft | 431 kts | 8° |
| 2026-05-04 21:23 | 44.92111 | 8.84666 | 22092 ft | 434 kts | 8° |
| 2026-05-04 21:23 | 44.95098 | 8.85383 | 22549 ft | 437 kts | 8° |
| 2026-05-04 21:23 | 44.98107 | 8.86109 | 22995 ft | 440 kts | 8° |
| 2026-05-04 21:23 | 45.01140 | 8.86839 | 23472 ft | 443 kts | 8° |
| 2026-05-04 21:24 | 45.04193 | 8.87568 | 23883 ft | 447 kts | 8° |
| 2026-05-04 21:24 | 45.07269 | 8.88297 | 24241 ft | 449 kts | 8° |
| 2026-05-04 21:24 | 45.10358 | 8.89029 | 24599 ft | 452 kts | 8° |
| 2026-05-04 21:24 | 45.13469 | 8.89769 | 24953 ft | 455 kts | 8° |
| 2026-05-04 21:25 | 45.16599 | 8.90517 | 25294 ft | 457 kts | 8° |
| 2026-05-04 21:25 | 45.19742 | 8.91274 | 25633 ft | 460 kts | 8° |
| 2026-05-04 21:25 | 45.22905 | 8.92038 | 25976 ft | 463 kts | 8° |
| 2026-05-04 21:25 | 45.26086 | 8.92810 | 26332 ft | 465 kts | 7° |
| 2026-05-04 21:26 | 45.29284 | 8.93585 | 26666 ft | 467 kts | 7° |
| 2026-05-04 21:26 | 45.32493 | 8.94360 | 27002 ft | 469 kts | 7° |
| 2026-05-04 21:26 | 45.35723 | 8.95139 | 27327 ft | 472 kts | 7° |
| 2026-05-04 21:26 | 45.38965 | 8.95921 | 27652 ft | 474 kts | 7° |
| 2026-05-04 21:27 | 45.42228 | 8.96708 | 27961 ft | 477 kts | 7° |
| 2026-05-04 21:27 | 45.45463 | 8.97489 | 28272 ft | 478 kts | 7° |
| 2026-05-04 21:27 | 45.48754 | 8.98285 | 28575 ft | 481 kts | 7° |
| 2026-05-04 21:27 | 45.52055 | 8.99090 | 28869 ft | 483 kts | 7° |
| 2026-05-04 21:28 | 45.55374 | 8.99903 | 29174 ft | 485 kts | 7° |
| 2026-05-04 21:28 | 45.58708 | 9.00716 | 29455 ft | 487 kts | 7° |
| 2026-05-04 21:28 | 45.62056 | 9.01529 | 29808 ft | 488 kts | 7° |
| 2026-05-04 21:28 | 45.65397 | 9.02325 | 30250 ft | 486 kts | 6° |
| 2026-05-04 21:29 | 45.68741 | 9.02983 | 30574 ft | 485 kts | 4° |
| 2026-05-04 21:29 | 45.72101 | 9.03494 | 30907 ft | 484 kts | 2° |
| 2026-05-04 21:29 | 45.75449 | 9.03917 | 31266 ft | 482 kts | 1° |
| 2026-05-04 21:29 | 45.78788 | 9.04312 | 31631 ft | 481 kts | 1° |
| 2026-05-04 21:30 | 45.82120 | 9.04721 | 32005 ft | 480 kts | 2° |
| 2026-05-04 21:30 | 45.85443 | 9.05166 | 32398 ft | 479 kts | 2° |
| 2026-05-04 21:30 | 45.88748 | 9.05643 | 32782 ft | 477 kts | 3° |
| 2026-05-04 21:30 | 45.92049 | 9.06144 | 33151 ft | 476 kts | 3° |
| 2026-05-04 21:31 | 45.98623 | 9.06930 | 33870 ft | 471 kts | 355° |
| 2026-05-04 21:31 | 46.01876 | 9.06568 | 34210 ft | 467 kts | 350° |
| 2026-05-04 21:31 | 46.05097 | 9.06034 | 34531 ft | 466 kts | 350° |
| 2026-05-04 21:32 | 46.08321 | 9.05510 | 34831 ft | 465 kts | 350° |
| 2026-05-04 21:32 | 46.11533 | 9.04992 | 35123 ft | 465 kts | 350° |
| 2026-05-04 21:32 | 46.14747 | 9.04483 | 35422 ft | 465 kts | 352° |
| 2026-05-04 21:32 | 46.17987 | 9.04397 | 35721 ft | 467 kts | 360° |
| 2026-05-04 21:33 | 46.21237 | 9.04618 | 36000 ft | 467 kts | 360° |
| 2026-05-04 21:33 | 46.24476 | 9.04840 | 36274 ft | 466 kts | 360° |
| 2026-05-04 21:33 | 46.27718 | 9.05059 | 36546 ft | 465 kts | 360° |
| 2026-05-04 21:33 | 46.30946 | 9.05274 | 36826 ft | 465 kts | 360° |
| 2026-05-04 21:34 | 46.34176 | 9.05487 | 37075 ft | 464 kts | 360° |
| 2026-05-04 21:34 | 46.37403 | 9.05698 | 37330 ft | 464 kts | 360° |
| 2026-05-04 21:34 | 46.40625 | 9.05913 | 37580 ft | 463 kts | 360° |
| 2026-05-04 21:34 | 46.43845 | 9.06135 | 37804 ft | 463 kts | 0° |
| 2026-05-04 21:35 | 46.47063 | 9.06362 | 38019 ft | 463 kts | 360° |
| 2026-05-04 21:35 | 46.53510 | 9.06805 | 38073 ft | 464 kts | 360° |
| 2026-05-04 21:36 | 46.59956 | 9.07252 | 38080 ft | 464 kts | 360° |
| 2026-05-04 21:36 | 46.66405 | 9.07690 | 38069 ft | 464 kts | 359° |
| 2026-05-04 21:37 | 46.72865 | 9.08133 | 38056 ft | 465 kts | 360° |
| 2026-05-04 21:37 | 46.79291 | 9.08564 | 38046 ft | 466 kts | 359° |
| 2026-05-04 21:38 | 46.85759 | 9.09008 | 38055 ft | 465 kts | 0° |
| 2026-05-04 21:38 | 46.92226 | 9.09459 | 38040 ft | 465 kts | 360° |
| 2026-05-04 21:39 | 46.97634 | 9.09836 | 38027 ft | 465 kts | 0° |
| 2026-05-04 21:39 | 47.04094 | 9.10281 | 38022 ft | 464 kts | 0° |
| 2026-05-04 21:40 | 47.10504 | 9.10723 | 38021 ft | 464 kts | 0° |
| 2026-05-04 21:40 | 47.16995 | 9.11176 | 38011 ft | 464 kts | 0° |
| 2026-05-04 21:41 | 47.23448 | 9.11621 | 38026 ft | 464 kts | 0° |
| 2026-05-04 21:41 | 47.29863 | 9.12073 | 38005 ft | 465 kts | 0° |
| 2026-05-04 21:42 | 47.36331 | 9.12532 | 38001 ft | 465 kts | 0° |
| 2026-05-04 21:42 | 47.42840 | 9.12995 | 38001 ft | 466 kts | 0° |
| 2026-05-04 21:43 | 47.50303 | 9.13525 | 38008 ft | 466 kts | 0° |
| 2026-05-04 21:43 | 47.63260 | 9.14438 | 38004 ft | 466 kts | 0° |
| 2026-05-04 21:44 | 47.76135 | 9.15347 | 38009 ft | 466 kts | 0° |
| 2026-05-04 21:44 | 47.89096 | 9.16275 | 38011 ft | 466 kts | 0° |
| 2026-05-04 21:45 | 48.02068 | 9.17207 | 37997 ft | 467 kts | 0° |
| 2026-05-04 21:45 | 48.15049 | 9.18137 | 38001 ft | 467 kts | 0° |
| 2026-05-04 21:46 | 48.28005 | 9.20027 | 37999 ft | 469 kts | 5° |
| 2026-05-04 21:46 | 48.40942 | 9.22405 | 37996 ft | 468 kts | 4° |
| 2026-05-04 21:47 | 48.53900 | 9.24544 | 37979 ft | 468 kts | 4° |
| 2026-05-04 21:47 | 48.66860 | 9.26714 | 37969 ft | 468 kts | 4° |
| 2026-05-04 21:48 | 48.79828 | 9.28653 | 37975 ft | 469 kts | 4° |
| 2026-05-04 21:48 | 48.92810 | 9.30648 | 37972 ft | 469 kts | 4° |
| 2026-05-04 21:49 | 49.05811 | 9.32657 | 37979 ft | 470 kts | 4° |
| 2026-05-04 21:49 | 49.18840 | 9.34687 | 37985 ft | 471 kts | 4° |
| 2026-05-04 21:50 | 49.31904 | 9.36717 | 38001 ft | 472 kts | 4° |
| 2026-05-04 21:50 | 49.44968 | 9.38763 | 38000 ft | 472 kts | 4° |
| 2026-05-04 21:51 | 49.58052 | 9.40828 | 37997 ft | 473 kts | 4° |
| 2026-05-04 21:51 | 49.71069 | 9.42894 | 37998 ft | 474 kts | 4° |
| 2026-05-04 21:52 | 49.84190 | 9.45006 | 38007 ft | 474 kts | 4° |
| 2026-05-04 21:52 | 49.97335 | 9.47102 | 38012 ft | 475 kts | 4° |
| 2026-05-04 21:52 | 50.03888 | 9.47013 | 38009 ft | 468 kts | 346° |
| 2026-05-04 21:53 | 50.09953 | 9.43772 | 38006 ft | 458 kts | 327° |
| 2026-05-04 21:53 | 50.15059 | 9.38052 | 37998 ft | 451 kts | 316° |
| 2026-05-04 21:53 | 50.19369 | 9.32591 | 37996 ft | 452 kts | 316° |
| 2026-05-04 21:54 | 50.24258 | 9.26413 | 37986 ft | 452 kts | 316° |
| 2026-05-04 21:54 | 50.29142 | 9.20212 | 38009 ft | 453 kts | 316° |
| 2026-05-04 21:55 | 50.33882 | 9.13776 | 37998 ft | 447 kts | 306° |
| 2026-05-04 21:55 | 50.37907 | 9.06375 | 37992 ft | 446 kts | 306° |
| 2026-05-04 21:56 | 50.41917 | 8.98935 | 37362 ft | 450 kts | 305° |
| 2026-05-04 21:56 | 50.43942 | 8.95163 | 36436 ft | 454 kts | 305° |
| 2026-05-04 21:56 | 50.45984 | 8.91360 | 35594 ft | 457 kts | 305° |
| 2026-05-04 21:56 | 50.48035 | 8.87541 | 34813 ft | 458 kts | 305° |
| 2026-05-04 21:57 | 50.50089 | 8.83714 | 34061 ft | 459 kts | 305° |
| 2026-05-04 21:57 | 50.52147 | 8.79871 | 33173 ft | 460 kts | 305° |
| 2026-05-04 21:57 | 50.54205 | 8.76018 | 32248 ft | 462 kts | 305° |
| 2026-05-04 21:57 | 50.56279 | 8.72133 | 31327 ft | 464 kts | 305° |
| 2026-05-04 21:58 | 50.58353 | 8.68246 | 30389 ft | 466 kts | 305° |
| 2026-05-04 21:58 | 50.60444 | 8.64323 | 29306 ft | 469 kts | 305° |
| 2026-05-04 21:58 | 50.62541 | 8.60377 | 28174 ft | 471 kts | 306° |
| 2026-05-04 21:58 | 50.64647 | 8.56408 | 27053 ft | 473 kts | 306° |
| 2026-05-04 21:59 | 50.66754 | 8.52432 | 26124 ft | 471 kts | 306° |
| 2026-05-04 21:59 | 50.68842 | 8.48486 | 25310 ft | 466 kts | 306° |
| 2026-05-04 21:59 | 50.70912 | 8.44576 | 24528 ft | 461 kts | 306° |
| 2026-05-04 21:59 | 50.72956 | 8.40715 | 23757 ft | 456 kts | 307° |
| 2026-05-04 22:00 | 50.74978 | 8.36882 | 22914 ft | 453 kts | 307° |
| 2026-05-04 22:00 | 50.76979 | 8.33074 | 22122 ft | 448 kts | 307° |
| 2026-05-04 22:00 | 50.78955 | 8.29300 | 21384 ft | 443 kts | 307° |
| 2026-05-04 22:00 | 50.80906 | 8.25567 | 20667 ft | 439 kts | 306° |
| 2026-05-04 22:01 | 50.82842 | 8.21860 | 19972 ft | 434 kts | 306° |
| 2026-05-04 22:01 | 50.84758 | 8.18196 | 19307 ft | 430 kts | 306° |
| 2026-05-04 22:01 | 50.86622 | 8.14625 | 18942 ft | 419 kts | 306° |
| 2026-05-04 22:01 | 50.88447 | 8.11130 | 18687 ft | 406 kts | 306° |
| 2026-05-04 22:02 | 50.90232 | 8.07705 | 18204 ft | 400 kts | 306° |
| 2026-05-04 22:02 | 50.91994 | 8.04316 | 17600 ft | 396 kts | 306° |
| 2026-05-04 22:02 | 50.93737 | 8.00951 | 17015 ft | 394 kts | 306° |
| 2026-05-04 22:02 | 50.95462 | 7.97618 | 16304 ft | 389 kts | 306° |
| 2026-05-04 22:03 | 50.97167 | 7.94322 | 15502 ft | 385 kts | 306° |
| 2026-05-04 22:03 | 50.98762 | 7.91235 | 14779 ft | 381 kts | 306° |
| 2026-05-04 22:04 | 50.99993 | 7.88837 | 14218 ft | 378 kts | 306° |
| 2026-05-04 22:04 | 51.01644 | 7.85623 | 13435 ft | 374 kts | 306° |
| 2026-05-04 22:04 | 51.03282 | 7.82441 | 12629 ft | 370 kts | 306° |
| 2026-05-04 22:04 | 51.04910 | 7.79283 | 12080 ft | 367 kts | 306° |
| 2026-05-04 22:05 | 51.06520 | 7.76160 | 11541 ft | 363 kts | 306° |
| 2026-05-04 22:05 | 51.08113 | 7.73068 | 10994 ft | 360 kts | 306° |
| 2026-05-04 22:05 | 51.09691 | 7.69993 | 10434 ft | 357 kts | 305° |
| 2026-05-04 22:05 | 51.11251 | 7.66944 | 9917 ft | 354 kts | 305° |
| 2026-05-04 22:06 | 51.12774 | 7.63974 | 9767 ft | 339 kts | 305° |
| 2026-05-04 22:06 | 51.14232 | 7.61131 | 9636 ft | 325 kts | 305° |
| 2026-05-04 22:06 | 51.15633 | 7.58393 | 9505 ft | 312 kts | 305° |
| 2026-05-04 22:06 | 51.16973 | 7.55767 | 9371 ft | 300 kts | 305° |
| 2026-05-04 22:07 | 51.18264 | 7.53231 | 9194 ft | 291 kts | 305° |
| 2026-05-04 22:07 | 51.19529 | 7.50741 | 8866 ft | 287 kts | 305° |
| 2026-05-04 22:07 | 51.20780 | 7.48272 | 8480 ft | 286 kts | 305° |
| 2026-05-04 22:07 | 51.22024 | 7.45812 | 8102 ft | 285 kts | 305° |
| 2026-05-04 22:08 | 51.23267 | 7.43353 | 7722 ft | 284 kts | 305° |
| 2026-05-04 22:08 | 51.24506 | 7.40902 | 7341 ft | 283 kts | 305° |
| 2026-05-04 22:08 | 51.25721 | 7.38501 | 7013 ft | 281 kts | 305° |
| 2026-05-04 22:08 | 51.26947 | 7.36079 | 6714 ft | 280 kts | 305° |
| 2026-05-04 22:09 | 51.28167 | 7.33666 | 6421 ft | 279 kts | 305° |
| 2026-05-04 22:09 | 51.29383 | 7.31256 | 6112 ft | 278 kts | 305° |
| 2026-05-04 22:09 | 51.30594 | 7.28858 | 5800 ft | 277 kts | 305° |
| 2026-05-04 22:09 | 51.31802 | 7.26463 | 5482 ft | 276 kts | 305° |
| 2026-05-04 22:10 | 51.33001 | 7.24081 | 5187 ft | 274 kts | 305° |
| 2026-05-04 22:10 | 51.34197 | 7.21709 | 4894 ft | 274 kts | 306° |
| 2026-05-04 22:10 | 51.35384 | 7.19340 | 4581 ft | 272 kts | 305° |
| 2026-05-04 22:10 | 51.36510 | 7.16928 | 4282 ft | 269 kts | 304° |
| 2026-05-04 22:11 | 51.37598 | 7.14529 | 4027 ft | 262 kts | 303° |
| 2026-05-04 22:11 | 51.38651 | 7.12204 | 3855 ft | 252 kts | 303° |
| 2026-05-04 22:11 | 51.39658 | 7.09986 | 3721 ft | 241 kts | 303° |
| 2026-05-04 22:11 | 51.40463 | 7.07735 | 3590 ft | 226 kts | 282° |
| 2026-05-04 22:12 | 51.40567 | 7.05303 | 3466 ft | 216 kts | 265° |
| 2026-05-04 22:12 | 51.40477 | 7.02927 | 3340 ft | 211 kts | 261° |
| 2026-05-04 22:12 | 51.40045 | 7.00761 | 3213 ft | 201 kts | 238° |
| 2026-05-04 22:12 | 51.39245 | 6.99000 | 3113 ft | 191 kts | 231° |
| 2026-05-04 22:13 | 51.38477 | 6.97373 | 3043 ft | 177 kts | 231° |
| 2026-05-04 22:13 | 51.37750 | 6.95836 | 2851 ft | 170 kts | 232° |
| 2026-05-04 22:13 | 51.37045 | 6.94345 | 2652 ft | 166 kts | 232° |
| 2026-05-04 22:13 | 51.36353 | 6.92880 | 2440 ft | 164 kts | 231° |
| 2026-05-04 22:14 | 51.35668 | 6.91433 | 2213 ft | 162 kts | 231° |
| 2026-05-04 22:14 | 51.34991 | 6.90003 | 2010 ft | 161 kts | 231° |
| 2026-05-04 22:14 | 51.34318 | 6.88582 | 1780 ft | 160 kts | 231° |
| 2026-05-04 22:14 | 51.33647 | 6.87167 | 1561 ft | 160 kts | 231° |
| 2026-05-04 22:15 | 51.32986 | 6.85774 | 1361 ft | 153 kts | 231° |
| 2026-05-04 22:15 | 51.32354 | 6.84441 | 1144 ft | 148 kts | 230° |
| 2026-05-04 22:15 | 51.31750 | 6.83168 | 947 ft | 141 kts | 231° |
| 2026-05-04 22:15 | 51.31161 | 6.81928 | 755 ft | 139 kts | 231° |
| 2026-05-04 22:16 | 51.30574 | 6.80701 | 569 ft | 138 kts | 230° |
| 2026-05-04 22:16 | 51.29993 | 6.79481 | 374 ft | 137 kts | 232° |
| 2026-05-04 22:16 | 51.29423 | 6.78257 | 204 ft | 137 kts | 231° |
| 2026-05-04 22:16 | 51.28873 | 6.77112 | 126 ft | 114 kts | 232° |
| 2026-05-04 22:17 | 51.28502 | 6.76332 | 127 ft | 61 kts | 233° |
| 2026-05-04 22:17 | 51.28359 | 6.76070 | 128 ft | 24 kts | 208° |
| 2026-05-04 22:17 | 51.28234 | 6.75979 | 125 ft | 16 kts | 204° |
| 2026-05-04 22:17 | 51.28137 | 6.75908 | 128 ft | 13 kts | 205° |
| 2026-05-04 22:18 | 51.28077 | 6.75863 | 127 ft | 7 kts | 205° |
| 2026-05-04 22:18 | 51.28041 | 6.75837 | 126 ft | 6 kts | 205° |
| 2026-05-04 22:18 | 51.27980 | 6.75822 | 126 ft | 12 kts | 182° |
| 2026-05-04 22:18 | 51.27899 | 6.75817 | 129 ft | 10 kts | 182° |
| 2026-05-04 22:19 | 51.27849 | 6.75851 | 128 ft | 7 kts | 124° |
| 2026-05-04 22:19 | 51.27844 | 6.75926 | 129 ft | 6 kts | 89° |
| 2026-05-04 22:19 | 51.27843 | 6.75991 | 129 ft | 6 kts | 92° |
| 2026-05-04 22:19 | 51.27841 | 6.76085 | 128 ft | 12 kts | 92° |
| 2026-05-04 22:20 | 51.27840 | 6.76205 | 128 ft | 9 kts | 91° |
| 2026-05-04 22:20 | 51.27845 | 6.76255 | 125 ft | 3 kts | 60° |
| 2026-05-04 22:20 | 51.27860 | 6.76280 | 128 ft | 3 kts | 47° |
| 2026-05-04 22:20 | 51.27875 | 6.76308 | 128 ft | 4 kts | 50° |
| 2026-05-04 22:21 | 51.27887 | 6.76331 | 126 ft | 0 kts | 50° |